sensor_id;sensor_type;location;lat;lon;timestamp;P1;durP1;ratioP1;P2;durP2;ratioP2
16147;SDS011;8179;59.364;18.018;2023-07-31T00:01:29;620.85;;;593.55;;
16147;SDS011;8179;59.364;18.018;2023-07-31T00:03:55;598.42;;;572.17;;
16147;SDS011;8179;59.364;18.018;2023-07-31T00:06:22;647.05;;;617.13;;
16147;SDS011;8179;59.364;18.018;2023-07-31T00:08:48;585.63;;;560.83;;
16147;SDS011;8179;59.364;18.018;2023-07-31T00:11:15;580.30;;;555.35;;
16147;SDS011;8179;59.364;18.018;2023-07-31T00:13:42;578.15;;;553.92;;
16147;SDS011;8179;59.364;18.018;2023-07-31T00:16:09;614.17;;;587.10;;
16147;SDS011;8179;59.364;18.018;2023-07-31T00:18:36;599.97;;;574.13;;
16147;SDS011;8179;59.364;18.018;2023-07-31T00:21:02;581.45;;;556.88;;
16147;SDS011;8179;59.364;18.018;2023-07-31T00:23:29;588.58;;;562.75;;
16147;SDS011;8179;59.364;18.018;2023-07-31T00:25:55;595.13;;;569.55;;
16147;SDS011;8179;59.364;18.018;2023-07-31T00:28:22;563.40;;;539.05;;
16147;SDS011;8179;59.364;18.018;2023-07-31T00:30:51;570.95;;;546.70;;
16147;SDS011;8179;59.364;18.018;2023-07-31T00:33:19;608.20;;;582.05;;
16147;SDS011;8179;59.364;18.018;2023-07-31T00:35:46;615.78;;;588.33;;
16147;SDS011;8179;59.364;18.018;2023-07-31T00:38:12;592.80;;;567.33;;
16147;SDS011;8179;59.364;18.018;2023-07-31T00:40:39;562.65;;;538.60;;
16147;SDS011;8179;59.364;18.018;2023-07-31T00:43:05;554.78;;;531.60;;
16147;SDS011;8179;59.364;18.018;2023-07-31T00:45:32;548.20;;;525.10;;
16147;SDS011;8179;59.364;18.018;2023-07-31T00:47:59;575.17;;;550.92;;
16147;SDS011;8179;59.364;18.018;2023-07-31T00:50:27;562.83;;;539.47;;
16147;SDS011;8179;59.364;18.018;2023-07-31T00:52:54;586.75;;;561.67;;
16147;SDS011;8179;59.364;18.018;2023-07-31T00:55:21;586.10;;;561.40;;
16147;SDS011;8179;59.364;18.018;2023-07-31T00:57:48;565.67;;;542.22;;
16147;SDS011;8179;59.364;18.018;2023-07-31T01:00:15;576.42;;;551.63;;
16147;SDS011;8179;59.364;18.018;2023-07-31T01:02:45;546.28;;;523.42;;
16147;SDS011;8179;59.364;18.018;2023-07-31T01:05:12;563.55;;;540.33;;
16147;SDS011;8179;59.364;18.018;2023-07-31T01:07:42;548.60;;;525.85;;
16147;SDS011;8179;59.364;18.018;2023-07-31T01:10:14;590.38;;;565.25;;
16147;SDS011;8179;59.364;18.018;2023-07-31T01:12:41;568.97;;;544.88;;
16147;SDS011;8179;59.364;18.018;2023-07-31T01:15:09;597.83;;;572.03;;
16147;SDS011;8179;59.364;18.018;2023-07-31T01:17:36;611.95;;;585.17;;
16147;SDS011;8179;59.364;18.018;2023-07-31T01:20:04;572.40;;;548.35;;
16147;SDS011;8179;59.364;18.018;2023-07-31T01:22:37;564.28;;;540.50;;
16147;SDS011;8179;59.364;18.018;2023-07-31T01:25:10;656.20;;;625.90;;
16147;SDS011;8179;59.364;18.018;2023-07-31T01:27:44;684.20;;;651.67;;
16147;SDS011;8179;59.364;18.018;2023-07-31T01:30:13;690.65;;;657.97;;
16147;SDS011;8179;59.364;18.018;2023-07-31T01:32:42;708.47;;;675.08;;
16147;SDS011;8179;59.364;18.018;2023-07-31T01:35:09;692.63;;;659.92;;
16147;SDS011;8179;59.364;18.018;2023-07-31T01:37:36;694.20;;;660.75;;
16147;SDS011;8179;59.364;18.018;2023-07-31T01:40:02;707.80;;;674.17;;
16147;SDS011;8179;59.364;18.018;2023-07-31T01:42:29;693.88;;;661.40;;
16147;SDS011;8179;59.364;18.018;2023-07-31T01:44:57;694.05;;;661.88;;
16147;SDS011;8179;59.364;18.018;2023-07-31T01:47:23;710.60;;;677.08;;
16147;SDS011;8179;59.364;18.018;2023-07-31T01:49:50;700.33;;;666.88;;
16147;SDS011;8179;59.364;18.018;2023-07-31T01:52:16;706.50;;;672.72;;
16147;SDS011;8179;59.364;18.018;2023-07-31T01:54:43;706.90;;;672.83;;
16147;SDS011;8179;59.364;18.018;2023-07-31T01:57:09;729.55;;;694.60;;
16147;SDS011;8179;59.364;18.018;2023-07-31T01:59:36;724.70;;;689.75;;
16147;SDS011;8179;59.364;18.018;2023-07-31T02:02:04;695.05;;;662.20;;
16147;SDS011;8179;59.364;18.018;2023-07-31T02:04:31;665.20;;;634.28;;
16147;SDS011;8179;59.364;18.018;2023-07-31T02:06:57;655.50;;;625.47;;
16147;SDS011;8179;59.364;18.018;2023-07-31T02:09:24;634.95;;;606.55;;
16147;SDS011;8179;59.364;18.018;2023-07-31T02:11:50;619.80;;;592.30;;
16147;SDS011;8179;59.364;18.018;2023-07-31T02:14:17;660.78;;;630.50;;
16147;SDS011;8179;59.364;18.018;2023-07-31T02:16:43;617.67;;;590.55;;
16147;SDS011;8179;59.364;18.018;2023-07-31T02:19:11;618.83;;;591.38;;
16147;SDS011;8179;59.364;18.018;2023-07-31T02:21:38;594.03;;;568.00;;
16147;SDS011;8179;59.364;18.018;2023-07-31T02:24:04;718.20;;;683.60;;
16147;SDS011;8179;59.364;18.018;2023-07-31T02:26:31;680.83;;;648.80;;
16147;SDS011;8179;59.364;18.018;2023-07-31T02:28:57;597.55;;;571.35;;
16147;SDS011;8179;59.364;18.018;2023-07-31T02:31:24;636.65;;;607.90;;
16147;SDS011;8179;59.364;18.018;2023-07-31T02:33:50;752.40;;;715.15;;
16147;SDS011;8179;59.364;18.018;2023-07-31T02:36:18;747.17;;;710.92;;
16147;SDS011;8179;59.364;18.018;2023-07-31T02:38:44;791.60;;;751.50;;
16147;SDS011;8179;59.364;18.018;2023-07-31T02:41:11;890.97;;;842.03;;
16147;SDS011;8179;59.364;18.018;2023-07-31T02:43:38;880.80;;;833.67;;
16147;SDS011;8179;59.364;18.018;2023-07-31T02:46:04;801.08;;;760.63;;
16147;SDS011;8179;59.364;18.018;2023-07-31T02:48:31;869.80;;;823.13;;
16147;SDS011;8179;59.364;18.018;2023-07-31T02:50:58;754.42;;;717.20;;
16147;SDS011;8179;59.364;18.018;2023-07-31T02:53:26;813.70;;;772.25;;
16147;SDS011;8179;59.364;18.018;2023-07-31T02:55:52;754.20;;;717.08;;
16147;SDS011;8179;59.364;18.018;2023-07-31T02:58:19;791.33;;;751.25;;
16147;SDS011;8179;59.364;18.018;2023-07-31T03:00:45;647.40;;;617.63;;
16147;SDS011;8179;59.364;18.018;2023-07-31T03:03:12;628.08;;;599.92;;
16147;SDS011;8179;59.364;18.018;2023-07-31T03:05:38;767.10;;;729.00;;
16147;SDS011;8179;59.364;18.018;2023-07-31T03:08:05;783.40;;;743.38;;
16147;SDS011;8179;59.364;18.018;2023-07-31T03:10:32;690.30;;;657.72;;
16147;SDS011;8179;59.364;18.018;2023-07-31T03:12:59;656.42;;;625.92;;
16147;SDS011;8179;59.364;18.018;2023-07-31T03:15:25;618.58;;;590.70;;
16147;SDS011;8179;59.364;18.018;2023-07-31T03:17:52;606.83;;;579.75;;
16147;SDS011;8179;59.364;18.018;2023-07-31T03:20:18;753.22;;;715.72;;
16147;SDS011;8179;59.364;18.018;2023-07-31T03:22:45;717.72;;;683.08;;
16147;SDS011;8179;59.364;18.018;2023-07-31T03:25:11;650.75;;;620.97;;
16147;SDS011;8179;59.364;18.018;2023-07-31T03:27:40;603.40;;;576.28;;
16147;SDS011;8179;59.364;18.018;2023-07-31T03:30:07;798.58;;;756.28;;
16147;SDS011;8179;59.364;18.018;2023-07-31T03:32:34;682.58;;;647.03;;
16147;SDS011;8179;59.364;18.018;2023-07-31T03:35:00;632.25;;;603.65;;
16147;SDS011;8179;59.364;18.018;2023-07-31T03:37:27;571.60;;;547.30;;
16147;SDS011;8179;59.364;18.018;2023-07-31T03:39:54;667.30;;;636.83;;
16147;SDS011;8179;59.364;18.018;2023-07-31T03:42:20;733.33;;;698.53;;
16147;SDS011;8179;59.364;18.018;2023-07-31T03:44:48;692.92;;;661.00;;
16147;SDS011;8179;59.364;18.018;2023-07-31T03:47:15;728.03;;;692.78;;
16147;SDS011;8179;59.364;18.018;2023-07-31T03:49:41;722.80;;;687.97;;
16147;SDS011;8179;59.364;18.018;2023-07-31T03:52:08;724.40;;;690.00;;
16147;SDS011;8179;59.364;18.018;2023-07-31T03:54:34;709.63;;;675.72;;
16147;SDS011;8179;59.364;18.018;2023-07-31T03:57:01;728.67;;;692.75;;
16147;SDS011;8179;59.364;18.018;2023-07-31T03:59:27;698.25;;;664.88;;
16147;SDS011;8179;59.364;18.018;2023-07-31T04:01:55;698.17;;;664.95;;
16147;SDS011;8179;59.364;18.018;2023-07-31T04:04:22;677.88;;;646.33;;
16147;SDS011;8179;59.364;18.018;2023-07-31T04:06:48;820.15;;;777.65;;
16147;SDS011;8179;59.364;18.018;2023-07-31T04:09:15;706.03;;;671.67;;
16147;SDS011;8179;59.364;18.018;2023-07-31T04:11:41;719.53;;;684.83;;
16147;SDS011;8179;59.364;18.018;2023-07-31T04:14:08;739.33;;;702.85;;
16147;SDS011;8179;59.364;18.018;2023-07-31T04:16:34;697.67;;;664.47;;
16147;SDS011;8179;59.364;18.018;2023-07-31T04:19:03;703.65;;;670.50;;
16147;SDS011;8179;59.364;18.018;2023-07-31T04:21:29;794.08;;;753.60;;
16147;SDS011;8179;59.364;18.018;2023-07-31T04:23:56;741.33;;;704.22;;
16147;SDS011;8179;59.364;18.018;2023-07-31T04:26:23;728.75;;;693.50;;
16147;SDS011;8179;59.364;18.018;2023-07-31T04:28:50;709.28;;;674.72;;
16147;SDS011;8179;59.364;18.018;2023-07-31T04:31:16;945.30;;;892.67;;
16147;SDS011;8179;59.364;18.018;2023-07-31T04:33:43;818.58;;;774.88;;
16147;SDS011;8179;59.364;18.018;2023-07-31T04:36:10;745.17;;;708.38;;
16147;SDS011;8179;59.364;18.018;2023-07-31T04:38:37;946.13;;;893.35;;
16147;SDS011;8179;59.364;18.018;2023-07-31T04:41:03;808.92;;;766.90;;
16147;SDS011;8179;59.364;18.018;2023-07-31T04:43:30;915.30;;;864.58;;
16147;SDS011;8179;59.364;18.018;2023-07-31T04:45:57;934.92;;;882.42;;
16147;SDS011;8179;59.364;18.018;2023-07-31T04:48:23;963.15;;;908.30;;
16147;SDS011;8179;59.364;18.018;2023-07-31T04:50:50;913.85;;;863.08;;
16147;SDS011;8179;59.364;18.018;2023-07-31T04:53:18;1027.90;;;966.45;;
16147;SDS011;8179;59.364;18.018;2023-07-31T04:55:45;967.83;;;912.67;;
16147;SDS011;8179;59.364;18.018;2023-07-31T04:58:11;958.13;;;902.85;;
16147;SDS011;8179;59.364;18.018;2023-07-31T05:00:38;825.20;;;780.80;;
16147;SDS011;8179;59.364;18.018;2023-07-31T05:03:04;991.95;;;934.22;;
16147;SDS011;8179;59.364;18.018;2023-07-31T05:05:31;942.00;;;888.55;;
16147;SDS011;8179;59.364;18.018;2023-07-31T05:07:58;992.00;;;934.00;;
16147;SDS011;8179;59.364;18.018;2023-07-31T05:10:26;740.10;;;703.08;;
16147;SDS011;8179;59.364;18.018;2023-07-31T05:12:52;844.47;;;799.25;;
16147;SDS011;8179;59.364;18.018;2023-07-31T05:15:19;751.75;;;713.90;;
16147;SDS011;8179;59.364;18.018;2023-07-31T05:17:45;923.97;;;871.65;;
16147;SDS011;8179;59.364;18.018;2023-07-31T05:20:12;564.60;;;539.83;;
16147;SDS011;8179;59.364;18.018;2023-07-31T05:22:39;807.63;;;764.25;;
16147;SDS011;8179;59.364;18.018;2023-07-31T05:25:06;818.60;;;775.00;;
16147;SDS011;8179;59.364;18.018;2023-07-31T05:27:34;814.30;;;772.05;;
16147;SDS011;8179;59.364;18.018;2023-07-31T05:30:01;567.00;;;541.30;;
16147;SDS011;8179;59.364;18.018;2023-07-31T05:32:27;903.65;;;854.33;;
16147;SDS011;8179;59.364;18.018;2023-07-31T05:34:54;940.42;;;886.80;;
16147;SDS011;8179;59.364;18.018;2023-07-31T05:37:20;841.40;;;796.28;;
16147;SDS011;8179;59.364;18.018;2023-07-31T05:39:47;916.33;;;864.95;;
16147;SDS011;8179;59.364;18.018;2023-07-31T05:42:13;915.15;;;864.40;;
16147;SDS011;8179;59.364;18.018;2023-07-31T05:44:41;924.75;;;873.63;;
16147;SDS011;8179;59.364;18.018;2023-07-31T05:47:08;840.10;;;795.08;;
16147;SDS011;8179;59.364;18.018;2023-07-31T05:49:35;862.47;;;815.38;;
16147;SDS011;8179;59.364;18.018;2023-07-31T05:52:01;869.70;;;821.75;;
16147;SDS011;8179;59.364;18.018;2023-07-31T05:54:28;841.15;;;796.15;;
16147;SDS011;8179;59.364;18.018;2023-07-31T05:56:54;831.47;;;787.35;;
16147;SDS011;8179;59.364;18.018;2023-07-31T05:59:21;838.85;;;793.67;;
16147;SDS011;8179;59.364;18.018;2023-07-31T06:01:49;875.17;;;827.15;;
16147;SDS011;8179;59.364;18.018;2023-07-31T06:04:15;935.03;;;883.15;;
16147;SDS011;8179;59.364;18.018;2023-07-31T06:06:42;894.08;;;843.60;;
16147;SDS011;8179;59.364;18.018;2023-07-31T06:09:08;882.80;;;834.28;;
16147;SDS011;8179;59.364;18.018;2023-07-31T06:11:35;862.17;;;815.13;;
16147;SDS011;8179;59.364;18.018;2023-07-31T06:14:01;831.53;;;787.47;;
16147;SDS011;8179;59.364;18.018;2023-07-31T06:16:28;859.47;;;813.35;;
16147;SDS011;8179;59.364;18.018;2023-07-31T06:18:56;882.95;;;834.78;;
16147;SDS011;8179;59.364;18.018;2023-07-31T06:21:23;864.35;;;817.53;;
16147;SDS011;8179;59.364;18.018;2023-07-31T06:23:49;862.90;;;816.67;;
16147;SDS011;8179;59.364;18.018;2023-07-31T06:26:16;803.75;;;761.90;;
16147;SDS011;8179;59.364;18.018;2023-07-31T06:28:42;866.35;;;818.97;;
16147;SDS011;8179;59.364;18.018;2023-07-31T06:31:09;843.08;;;797.83;;
16147;SDS011;8179;59.364;18.018;2023-07-31T06:33:35;874.42;;;827.03;;
16147;SDS011;8179;59.364;18.018;2023-07-31T06:36:04;907.55;;;856.35;;
16147;SDS011;8179;59.364;18.018;2023-07-31T06:38:30;998.08;;;939.50;;
16147;SDS011;8179;59.364;18.018;2023-07-31T06:40:57;926.47;;;875.00;;
16147;SDS011;8179;59.364;18.018;2023-07-31T06:43:24;963.95;;;908.47;;
16147;SDS011;8179;59.364;18.018;2023-07-31T06:45:50;951.95;;;898.05;;
16147;SDS011;8179;59.364;18.018;2023-07-31T06:48:17;948.33;;;894.53;;
16147;SDS011;8179;59.364;18.018;2023-07-31T06:50:43;963.53;;;908.65;;
16147;SDS011;8179;59.364;18.018;2023-07-31T06:53:11;970.10;;;913.92;;
16147;SDS011;8179;59.364;18.018;2023-07-31T06:55:38;943.47;;;890.40;;
16147;SDS011;8179;59.364;18.018;2023-07-31T06:58:04;980.17;;;923.38;;
16147;SDS011;8179;59.364;18.018;2023-07-31T07:00:31;994.83;;;936.33;;
16147;SDS011;8179;59.364;18.018;2023-07-31T07:02:57;1017.72;;;955.65;;
16147;SDS011;8179;59.364;18.018;2023-07-31T07:05:24;1004.63;;;944.35;;
16147;SDS011;8179;59.364;18.018;2023-07-31T07:07:50;951.35;;;895.28;;
16147;SDS011;8179;59.364;18.018;2023-07-31T07:10:20;1026.68;;;957.70;;
16147;SDS011;8179;59.364;18.018;2023-07-31T07:12:47;1032.68;;;966.28;;
16147;SDS011;8179;59.364;18.018;2023-07-31T07:15:13;752.88;;;713.30;;
16147;SDS011;8179;59.364;18.018;2023-07-31T07:17:40;870.78;;;818.85;;
16147;SDS011;8179;59.364;18.018;2023-07-31T07:20:07;892.72;;;839.25;;
16147;SDS011;8179;59.364;18.018;2023-07-31T07:22:34;1085.03;;;999.85;;
16147;SDS011;8179;59.364;18.018;2023-07-31T07:25:00;884.92;;;835.67;;
16147;SDS011;8179;59.364;18.018;2023-07-31T07:27:28;1044.38;;;978.92;;
16147;SDS011;8179;59.364;18.018;2023-07-31T07:29:55;1005.17;;;944.58;;
16147;SDS011;8179;59.364;18.018;2023-07-31T07:32:22;1009.38;;;949.25;;
16147;SDS011;8179;59.364;18.018;2023-07-31T07:34:48;880.08;;;830.95;;
16147;SDS011;8179;59.364;18.018;2023-07-31T07:37:15;973.20;;;916.97;;
16147;SDS011;8179;59.364;18.018;2023-07-31T07:39:42;952.08;;;896.45;;
16147;SDS011;8179;59.364;18.018;2023-07-31T07:42:08;949.97;;;895.35;;
16147;SDS011;8179;59.364;18.018;2023-07-31T07:44:36;999.90;;;940.17;;
16147;SDS011;8179;59.364;18.018;2023-07-31T07:47:03;944.35;;;890.97;;
16147;SDS011;8179;59.364;18.018;2023-07-31T07:49:31;965.83;;;910.60;;
16147;SDS011;8179;59.364;18.018;2023-07-31T07:51:57;1012.72;;;952.10;;
16147;SDS011;8179;59.364;18.018;2023-07-31T07:54:24;1000.10;;;940.05;;
16147;SDS011;8179;59.364;18.018;2023-07-31T07:56:50;902.47;;;851.63;;
16147;SDS011;8179;59.364;18.018;2023-07-31T07:59:17;958.85;;;903.88;;
16147;SDS011;8179;59.364;18.018;2023-07-31T08:01:45;951.92;;;897.67;;
16147;SDS011;8179;59.364;18.018;2023-07-31T08:04:11;919.03;;;867.95;;
16147;SDS011;8179;59.364;18.018;2023-07-31T08:06:38;991.83;;;926.63;;
16147;SDS011;8179;59.364;18.018;2023-07-31T08:09:05;943.47;;;890.65;;
16147;SDS011;8179;59.364;18.018;2023-07-31T08:11:31;938.42;;;886.20;;
16147;SDS011;8179;59.364;18.018;2023-07-31T08:13:58;930.35;;;878.35;;
16147;SDS011;8179;59.364;18.018;2023-07-31T08:16:24;923.85;;;873.40;;
16147;SDS011;8179;59.364;18.018;2023-07-31T08:18:52;969.45;;;914.17;;
16147;SDS011;8179;59.364;18.018;2023-07-31T08:21:19;943.05;;;889.72;;
16147;SDS011;8179;59.364;18.018;2023-07-31T08:23:45;939.10;;;886.67;;
16147;SDS011;8179;59.364;18.018;2023-07-31T08:26:14;935.03;;;882.90;;
16147;SDS011;8179;59.364;18.018;2023-07-31T08:28:40;922.75;;;872.10;;
16147;SDS011;8179;59.364;18.018;2023-07-31T08:31:07;923.17;;;871.97;;
16147;SDS011;8179;59.364;18.018;2023-07-31T08:33:33;922.22;;;870.92;;
16147;SDS011;8179;59.364;18.018;2023-07-31T08:36:01;940.83;;;888.08;;
16147;SDS011;8179;59.364;18.018;2023-07-31T08:38:28;943.75;;;890.88;;
16147;SDS011;8179;59.364;18.018;2023-07-31T08:40:56;905.60;;;855.60;;
16147;SDS011;8179;59.364;18.018;2023-07-31T08:43:22;907.97;;;857.38;;
16147;SDS011;8179;59.364;18.018;2023-07-31T08:45:51;692.10;;;656.38;;
16147;SDS011;8179;59.364;18.018;2023-07-31T08:48:18;895.38;;;845.65;;
16147;SDS011;8179;59.364;18.018;2023-07-31T08:50:45;955.08;;;901.10;;
16147;SDS011;8179;59.364;18.018;2023-07-31T08:53:13;957.88;;;902.47;;
16147;SDS011;8179;59.364;18.018;2023-07-31T08:55:40;965.45;;;909.92;;
16147;SDS011;8179;59.364;18.018;2023-07-31T08:58:06;957.58;;;903.75;;
16147;SDS011;8179;59.364;18.018;2023-07-31T09:00:33;1023.13;;;961.22;;
16147;SDS011;8179;59.364;18.018;2023-07-31T09:03:01;963.92;;;908.75;;
16147;SDS011;8179;59.364;18.018;2023-07-31T09:05:28;951.75;;;897.65;;
16147;SDS011;8179;59.364;18.018;2023-07-31T09:07:55;975.80;;;919.95;;
16147;SDS011;8179;59.364;18.018;2023-07-31T09:10:24;1031.47;;;967.00;;
16147;SDS011;8179;59.364;18.018;2023-07-31T09:12:50;1078.80;;;998.72;;
16147;SDS011;8179;59.364;18.018;2023-07-31T09:15:17;1020.20;;;957.38;;
16147;SDS011;8179;59.364;18.018;2023-07-31T09:17:44;994.65;;;935.28;;
16147;SDS011;8179;59.364;18.018;2023-07-31T09:20:15;993.88;;;934.40;;
16147;SDS011;8179;59.364;18.018;2023-07-31T09:22:42;1054.75;;;987.60;;
16147;SDS011;8179;59.364;18.018;2023-07-31T09:25:15;1039.57;;;973.63;;
16147;SDS011;8179;59.364;18.018;2023-07-31T09:27:46;980.72;;;921.42;;
16147;SDS011;8179;59.364;18.018;2023-07-31T09:30:13;1004.88;;;943.40;;
16147;SDS011;8179;59.364;18.018;2023-07-31T09:32:40;772.90;;;732.55;;
16147;SDS011;8179;59.364;18.018;2023-07-31T09:35:12;904.13;;;851.53;;
16147;SDS011;8179;59.364;18.018;2023-07-31T09:37:39;977.85;;;918.15;;
16147;SDS011;8179;59.364;18.018;2023-07-31T09:40:06;666.67;;;634.30;;
16147;SDS011;8179;59.364;18.018;2023-07-31T09:42:33;579.33;;;554.58;;
16147;SDS011;8179;59.364;18.018;2023-07-31T09:45:08;477.77;;;459.48;;
16147;SDS011;8179;59.364;18.018;2023-07-31T09:47:34;829.47;;;783.53;;
16147;SDS011;8179;59.364;18.018;2023-07-31T09:50:01;881.95;;;831.28;;
16147;SDS011;8179;59.364;18.018;2023-07-31T09:52:27;900.65;;;848.35;;
16147;SDS011;8179;59.364;18.018;2023-07-31T09:54:54;668.95;;;635.72;;
16147;SDS011;8179;59.364;18.018;2023-07-31T09:57:21;597.97;;;569.50;;
16147;SDS011;8179;59.364;18.018;2023-07-31T09:59:48;810.40;;;766.63;;
16147;SDS011;8179;59.364;18.018;2023-07-31T10:02:19;773.35;;;732.47;;
16147;SDS011;8179;59.364;18.018;2023-07-31T10:04:47;683.75;;;649.85;;
16147;SDS011;8179;59.364;18.018;2023-07-31T10:07:14;782.22;;;739.83;;
16147;SDS011;8179;59.364;18.018;2023-07-31T10:09:43;781.20;;;739.33;;
16147;SDS011;8179;59.364;18.018;2023-07-31T10:12:10;833.78;;;787.45;;
16147;SDS011;8179;59.364;18.018;2023-07-31T10:14:38;758.88;;;718.80;;
16147;SDS011;8179;59.364;18.018;2023-07-31T10:17:05;802.38;;;759.22;;
16147;SDS011;8179;59.364;18.018;2023-07-31T10:19:34;752.83;;;712.28;;
16147;SDS011;8179;59.364;18.018;2023-07-31T10:22:00;933.17;;;876.83;;
16147;SDS011;8179;59.364;18.018;2023-07-31T10:24:29;813.40;;;768.92;;
16147;SDS011;8179;59.364;18.018;2023-07-31T10:26:56;915.28;;;861.35;;
16147;SDS011;8179;59.364;18.018;2023-07-31T10:29:23;913.92;;;860.25;;
16147;SDS011;8179;59.364;18.018;2023-07-31T10:31:50;584.35;;;558.58;;
16147;SDS011;8179;59.364;18.018;2023-07-31T10:34:17;637.25;;;607.15;;
16147;SDS011;8179;59.364;18.018;2023-07-31T10:36:45;724.25;;;687.22;;
16147;SDS011;8179;59.364;18.018;2023-07-31T10:41:53;502.65;;;481.75;;
16147;SDS011;8179;59.364;18.018;2023-07-31T10:44:19;908.78;;;856.63;;
16147;SDS011;8179;59.364;18.018;2023-07-31T10:46:46;714.95;;;679.75;;
16147;SDS011;8179;59.364;18.018;2023-07-31T10:49:13;692.40;;;657.33;;
16147;SDS011;8179;59.364;18.018;2023-07-31T10:51:48;634.33;;;604.88;;
16147;SDS011;8179;59.364;18.018;2023-07-31T10:54:15;332.63;;;320.75;;
16147;SDS011;8179;59.364;18.018;2023-07-31T10:56:44;461.15;;;442.60;;
16147;SDS011;8179;59.364;18.018;2023-07-31T10:59:11;456.38;;;438.52;;
16147;SDS011;8179;59.364;18.018;2023-07-31T11:01:51;330.02;;;318.13;;
16147;SDS011;8179;59.364;18.018;2023-07-31T11:04:21;282.67;;;273.20;;
16147;SDS011;8179;59.364;18.018;2023-07-31T11:06:56;459.90;;;441.65;;
16147;SDS011;8179;59.364;18.018;2023-07-31T11:09:24;418.98;;;402.42;;
16147;SDS011;8179;59.364;18.018;2023-07-31T11:11:50;497.77;;;477.38;;
16147;SDS011;8179;59.364;18.018;2023-07-31T11:14:17;619.17;;;590.70;;
16147;SDS011;8179;59.364;18.018;2023-07-31T11:16:44;633.28;;;603.55;;
16147;SDS011;8179;59.364;18.018;2023-07-31T11:19:10;365.00;;;352.00;;
16147;SDS011;8179;59.364;18.018;2023-07-31T11:21:37;555.45;;;532.35;;
16147;SDS011;8179;59.364;18.018;2023-07-31T11:24:05;305.17;;;294.85;;
16147;SDS011;8179;59.364;18.018;2023-07-31T11:26:31;541.60;;;518.35;;
16147;SDS011;8179;59.364;18.018;2023-07-31T11:28:58;517.75;;;495.33;;
16147;SDS011;8179;59.364;18.018;2023-07-31T11:31:25;643.38;;;612.63;;
16147;SDS011;8179;59.364;18.018;2023-07-31T11:34:03;730.70;;;693.95;;
16147;SDS011;8179;59.364;18.018;2023-07-31T11:36:30;638.72;;;608.53;;
16147;SDS011;8179;59.364;18.018;2023-07-31T11:39:05;840.55;;;794.05;;
16147;SDS011;8179;59.364;18.018;2023-07-31T11:41:32;870.97;;;820.88;;
16147;SDS011;8179;59.364;18.018;2023-07-31T11:43:59;852.33;;;803.25;;
16147;SDS011;8179;59.364;18.018;2023-07-31T11:46:25;801.80;;;759.05;;
16147;SDS011;8179;59.364;18.018;2023-07-31T11:48:52;675.00;;;641.78;;
16147;SDS011;8179;59.364;18.018;2023-07-31T11:51:18;866.92;;;817.58;;
16147;SDS011;8179;59.364;18.018;2023-07-31T11:53:47;862.65;;;813.75;;
16147;SDS011;8179;59.364;18.018;2023-07-31T11:56:17;726.53;;;689.20;;
16147;SDS011;8179;59.364;18.018;2023-07-31T11:58:44;826.70;;;781.97;;
16147;SDS011;8179;59.364;18.018;2023-07-31T12:01:13;882.13;;;830.78;;
16147;SDS011;8179;59.364;18.018;2023-07-31T12:03:40;949.55;;;891.08;;
16147;SDS011;8179;59.364;18.018;2023-07-31T12:06:08;848.67;;;800.78;;
16147;SDS011;8179;59.364;18.018;2023-07-31T12:08:34;956.92;;;897.90;;
16147;SDS011;8179;59.364;18.018;2023-07-31T12:11:03;855.15;;;807.03;;
16147;SDS011;8179;59.364;18.018;2023-07-31T12:13:31;954.42;;;895.70;;
16147;SDS011;8179;59.364;18.018;2023-07-31T12:15:59;930.13;;;874.10;;
16147;SDS011;8179;59.364;18.018;2023-07-31T12:18:27;901.28;;;848.85;;
16147;SDS011;8179;59.364;18.018;2023-07-31T12:20:54;892.53;;;840.17;;
16147;SDS011;8179;59.364;18.018;2023-07-31T12:23:22;878.13;;;826.67;;
16147;SDS011;8179;59.364;18.018;2023-07-31T12:25:59;838.00;;;790.58;;
16147;SDS011;8179;59.364;18.018;2023-07-31T12:28:26;836.78;;;790.95;;
16147;SDS011;8179;59.364;18.018;2023-07-31T12:30:56;960.72;;;902.95;;
16147;SDS011;8179;59.364;18.018;2023-07-31T12:33:22;922.03;;;867.33;;
16147;SDS011;8179;59.364;18.018;2023-07-31T12:35:49;914.58;;;860.17;;
16147;SDS011;8179;59.364;18.018;2023-07-31T12:38:15;979.53;;;918.03;;
16147;SDS011;8179;59.364;18.018;2023-07-31T12:40:42;1037.63;;;970.95;;
16147;SDS011;8179;59.364;18.018;2023-07-31T12:43:08;992.83;;;929.75;;
16147;SDS011;8179;59.364;18.018;2023-07-31T12:45:35;912.65;;;858.55;;
16147;SDS011;8179;59.364;18.018;2023-07-31T12:48:03;776.92;;;736.92;;
16147;SDS011;8179;59.364;18.018;2023-07-31T12:50:30;739.75;;;702.22;;
16147;SDS011;8179;59.364;18.018;2023-07-31T12:52:56;718.17;;;682.45;;
16147;SDS011;8179;59.364;18.018;2023-07-31T12:55:23;715.78;;;679.15;;
16147;SDS011;8179;59.364;18.018;2023-07-31T12:57:50;756.08;;;716.63;;
16147;SDS011;8179;59.364;18.018;2023-07-31T13:00:16;588.08;;;562.58;;
16147;SDS011;8179;59.364;18.018;2023-07-31T13:02:43;698.35;;;663.70;;
16147;SDS011;8179;59.364;18.018;2023-07-31T13:05:11;798.20;;;754.92;;
16147;SDS011;8179;59.364;18.018;2023-07-31T13:07:38;682.88;;;649.65;;
16147;SDS011;8179;59.364;18.018;2023-07-31T13:10:05;615.08;;;587.88;;
16147;SDS011;8179;59.364;18.018;2023-07-31T13:12:32;579.50;;;554.10;;
16147;SDS011;8179;59.364;18.018;2023-07-31T13:14:58;633.00;;;603.70;;
16147;SDS011;8179;59.364;18.018;2023-07-31T13:17:25;698.60;;;664.58;;
16147;SDS011;8179;59.364;18.018;2023-07-31T13:19:52;568.20;;;543.72;;
16147;SDS011;8179;59.364;18.018;2023-07-31T13:22:19;619.67;;;591.50;;
16147;SDS011;8179;59.364;18.018;2023-07-31T13:24:47;626.53;;;598.75;;
16147;SDS011;8179;59.364;18.018;2023-07-31T13:27:14;702.50;;;667.28;;
16147;SDS011;8179;59.364;18.018;2023-07-31T13:29:42;685.47;;;652.40;;
16147;SDS011;8179;59.364;18.018;2023-07-31T13:32:08;595.80;;;569.75;;
16147;SDS011;8179;59.364;18.018;2023-07-31T13:34:34;679.88;;;647.67;;
16147;SDS011;8179;59.364;18.018;2023-07-31T13:37:01;754.08;;;715.45;;
16147;SDS011;8179;59.364;18.018;2023-07-31T13:39:29;709.30;;;674.35;;
16147;SDS011;8179;59.364;18.018;2023-07-31T13:41:55;610.22;;;582.75;;
16147;SDS011;8179;59.364;18.018;2023-07-31T13:44:22;651.88;;;621.22;;
16147;SDS011;8179;59.364;18.018;2023-07-31T13:46:48;631.22;;;602.25;;
16147;SDS011;8179;59.364;18.018;2023-07-31T13:49:15;759.80;;;721.08;;
16147;SDS011;8179;59.364;18.018;2023-07-31T13:51:41;801.65;;;758.63;;
16147;SDS011;8179;59.364;18.018;2023-07-31T13:54:08;804.55;;;760.97;;
16147;SDS011;8179;59.364;18.018;2023-07-31T13:56:38;861.15;;;813.40;;
16147;SDS011;8179;59.364;18.018;2023-07-31T13:59:04;864.30;;;815.72;;